Time;durP1;ratioP1;P1;durP2;ratioP2;P2;SDS_P1;SDS_P2;PMS_P1;PMS_P2;Temp;Humidity;BMP_temperature;BMP_pressure;BME280_temperature;BME280_humidity;BME280_pressure;Samples;Min_cycle;Max_cycle;Signal;HPM_P1;HPM_P2
2021/10/27 00:00:59;;;;;;;13.02;7.80;;;;;;;17.23;61.26;102108.09;5075588;27;109502;-79
2021/10/27 00:03:26;;;;;;;13.73;7.95;;;;;;;17.24;61.36;102104.50;5077304;27;109665;-78
2021/10/27 00:05:53;;;;;;;11.52;7.47;;;;;;;17.25;61.29;102108.91;5070549;27;123498;-78
2021/10/27 00:08:20;;;;;;;15.10;7.47;;;;;;;17.25;61.28;102103.56;5075165;27;124018;-78
2021/10/27 00:10:48;;;;;;;13.75;7.28;;;;;;;17.25;61.25;102111.59;5072386;27;110414;-78
2021/10/27 00:13:16;;;;;;;14.95;8.32;;;;;;;17.26;61.31;102107.97;5074281;27;109828;-78
2021/10/27 00:15:43;;;;;;;13.45;6.95;;;;;;;17.27;61.21;102108.81;5068605;27;124690;-77
2021/10/27 00:18:10;;;;;;;13.32;7.28;;;;;;;17.28;61.31;102106.06;5065269;27;123894;-76
2021/10/27 00:20:38;;;;;;;14.48;6.93;;;;;;;17.29;61.44;102107.81;5071476;27;109627;-77
2021/10/27 00:23:05;;;;;;;10.82;6.70;;;;;;;17.31;61.29;102111.25;5072870;27;107838;-77
2021/10/27 00:25:32;;;;;;;12.63;6.88;;;;;;;17.32;61.48;102112.97;5074155;27;124036;-77
2021/10/27 00:27:59;;;;;;;10.30;6.72;;;;;;;17.34;61.29;102122.75;5076843;27;123472;-78
2021/10/27 00:30:26;;;;;;;8.20;5.82;;;;;;;17.33;61.33;102119.22;5074216;27;108830;-77
2021/10/27 00:32:54;;;;;;;11.00;6.35;;;;;;;17.35;61.38;102121.78;5074783;27;109161;-77
2021/10/27 00:35:21;;;;;;;15.52;5.95;;;;;;;17.35;61.55;102121.78;5070940;27;124701;-78
2021/10/27 00:37:48;;;;;;;7.88;5.97;;;;;;;17.36;61.50;102123.53;5072262;27;124585;-77
2021/10/27 00:40:16;;;;;;;9.85;6.40;;;;;;;17.37;61.36;102125.28;5072944;27;108531;-78
2021/10/27 00:42:43;;;;;;;12.13;5.70;;;;;;;17.37;61.51;102120.78;5058099;27;107946;-78
2021/10/27 00:45:10;;;;;;;11.48;5.65;;;;;;;17.36;61.68;102128.91;5072284;27;124821;-77
2021/10/27 00:47:37;;;;;;;10.07;5.45;;;;;;;17.37;61.61;102126.13;5071081;27;123707;-77
2021/10/27 00:50:05;;;;;;;8.02;5.22;;;;;;;17.38;61.70;102137.72;5073533;27;109451;-78
2021/10/27 00:52:33;;;;;;;9.25;5.10;;;;;;;17.37;61.70;102130.63;5072296;27;107972;-79
2021/10/27 00:55:00;;;;;;;10.68;5.35;;;;;;;17.37;61.71;102125.28;5073896;27;123913;-77
2021/10/27 00:57:28;;;;;;;8.00;5.28;;;;;;;17.38;61.69;102127.00;5073222;27;124580;-77
2021/10/27 00:59:56;;;;;;;9.82;5.55;;;;;;;17.38;61.71;102121.66;5073257;27;110742;-78
2021/10/27 01:02:23;;;;;;;10.43;5.28;;;;;;;17.39;61.56;102123.38;5071822;27;110296;-78
2021/10/27 01:04:50;;;;;;;11.30;5.43;;;;;;;17.40;61.57;102115.25;5069107;27;123284;-78
2021/10/27 01:07:17;;;;;;;11.30;4.97;;;;;;;17.41;61.82;102116.13;5064554;27;124637;-78
2021/10/27 01:09:45;;;;;;;8.38;4.47;;;;;;;17.40;61.64;102125.09;5067677;27;108289;-77
2021/10/27 01:12:12;;;;;;;8.70;4.85;;;;;;;17.42;61.83;102112.50;5067666;27;107858;-77
2021/10/27 01:14:43;;;;;;;9.13;5.05;;;;;;;17.44;61.87;102115.94;5069192;27;124236;-77
2021/10/27 01:17:15;;;;;;;8.43;4.82;;;;;;;17.44;61.78;102111.47;5069614;27;123831;-76
2021/10/27 01:19:52;;;;;;;7.85;4.78;;;;;;;17.45;61.70;102109.66;5070960;27;108981;-77
2021/10/27 01:22:24;;;;;;;9.32;4.72;;;;;;;17.44;61.82;102115.94;5067624;27;108857;-77
2021/10/27 01:24:53;;;;;;;10.20;4.82;;;;;;;17.45;61.73;102106.97;5051182;27;123210;-78
2021/10/27 01:27:21;;;;;;;8.32;4.53;;;;;;;17.45;61.67;102102.47;5075761;27;124371;-77
2021/10/27 01:29:49;;;;;;;10.68;4.88;;;;;;;17.47;61.76;102105.09;5067435;27;108799;-78
2021/10/27 01:32:22;;;;;;;9.07;4.68;;;;;;;17.47;61.77;102099.72;5068187;27;108050;-77
2021/10/27 01:34:49;;;;;;;8.43;4.80;;;;;;;17.47;61.70;102099.72;5057736;27;123325;-77
2021/10/27 01:37:16;;;;;;;6.70;4.55;;;;;;;17.47;61.88;102097.91;5073466;27;123190;-78
2021/10/27 01:39:44;;;;;;;10.00;4.90;;;;;;;17.47;61.90;102091.69;5075723;27;109386;-78
2021/10/27 01:42:11;;;;;;;8.38;4.65;;;;;;;17.46;61.69;102089.94;5072335;27;108885;-77
2021/10/27 01:44:40;;;;;;;10.95;4.97;;;;;;;17.45;61.57;102083.72;5071084;27;123447;-76
2021/10/27 01:47:10;;;;;;;9.85;5.18;;;;;;;17.44;61.83;102082.03;5075277;27;124246;-77
2021/10/27 01:49:38;;;;;;;10.02;5.00;;;;;;;17.44;61.80;102084.69;5075871;27;110575;-78
2021/10/27 01:52:06;;;;;;;9.43;5.30;;;;;;;17.44;61.68;102073.97;5073331;27;109788;-78
2021/10/27 01:54:34;;;;;;;11.05;5.38;;;;;;;17.45;61.65;102082.88;5072800;27;124449;-77
2021/10/27 01:57:02;;;;;;;10.18;4.97;;;;;;;17.45;61.81;102080.19;5070778;27;124233;-77
2021/10/27 01:59:29;;;;;;;8.43;4.50;;;;;;;17.45;61.67;102083.72;5076183;27;109225;-76
2021/10/27 02:01:56;;;;;;;7.22;4.55;;;;;;;17.43;61.62;102077.59;5074626;27;107834;-77
2021/10/27 02:04:25;;;;;;;12.38;5.45;;;;;;;17.44;61.69;102081.13;5074573;27;124314;-78
2021/10/27 02:06:52;;;;;;;9.20;5.35;;;;;;;17.43;61.79;102076.75;5076172;27;123646;-78
2021/10/27 02:09:19;;;;;;;8.63;4.68;;;;;;;17.43;61.88;102076.75;5076023;27;109468;-78
2021/10/27 02:11:46;;;;;;;8.48;4.50;;;;;;;17.43;61.84;102082.09;5075646;27;109093;-79
2021/10/27 02:14:14;;;;;;;8.00;4.47;;;;;;;17.43;61.71;102071.38;5076119;27;124730;-77
2021/10/27 02:16:42;;;;;;;8.70;4.47;;;;;;;17.43;61.82;102066.03;5074678;27;123681;-78
2021/10/27 02:19:09;;;;;;;11.10;4.95;;;;;;;17.44;61.78;102065.06;5071522;27;110249;-79
2021/10/27 02:21:37;;;;;;;8.77;4.57;;;;;;;17.44;61.87;102062.38;5069981;27;108042;-79
2021/10/27 02:24:04;;;;;;;7.65;4.30;;;;;;;17.45;61.73;102061.44;5057235;27;122090;-77
2021/10/27 02:26:31;;;;;;;8.35;4.25;;;;;;;17.45;61.91;102070.34;5068791;27;124683;-79
2021/10/27 02:28:58;;;;;;;8.52;4.07;;;;;;;17.45;61.74;102072.16;5074932;27;109315;-78
2021/10/27 02:31:26;;;;;;;8.20;4.05;;;;;;;17.45;61.75;102070.34;5076033;27;108397;-76
2021/10/27 02:33:53;;;;;;;9.32;3.90;;;;;;;17.46;61.93;102071.19;5074720;27;123830;-77
2021/10/27 02:36:21;;;;;;;10.15;4.20;;;;;;;17.45;61.56;102074.84;5078525;27;123529;-78
2021/10/27 02:38:48;;;;;;;7.20;4.03;;;;;;;17.46;61.66;102079.22;5061362;22;109868;-64
2021/10/27 02:41:16;;;;;;;7.43;3.72;;;;;;;17.46;61.74;102076.56;5029774;28;109495;-63
2021/10/27 02:43:44;;;;;;;7.40;3.80;;;;;;;17.45;61.72;102066.81;5028596;28;124714;-63
2021/10/27 02:46:12;;;;;;;7.55;3.97;;;;;;;17.45;61.81;102074.84;5026821;28;124201;-63
2021/10/27 02:48:40;;;;;;;6.90;3.30;;;;;;;17.44;61.67;102073.09;5025168;28;109575;-63
2021/10/27 02:51:08;;;;;;;7.00;3.22;;;;;;;17.44;61.62;102073.97;5034862;28;108954;-64
2021/10/27 02:53:35;;;;;;;9.10;3.97;;;;;;;17.44;61.69;102078.44;5032664;28;122984;-64
2021/10/27 02:56:02;;;;;;;9.20;4.13;;;;;;;17.44;61.67;102083.81;5025470;28;124663;-63
2021/10/27 02:58:30;;;;;;;7.30;3.75;;;;;;;17.43;61.65;102087.44;5027835;28;109367;-63
2021/10/27 03:00:57;;;;;;;9.85;4.28;;;;;;;17.42;61.73;102081.25;5026594;28;109036;-64
2021/10/27 03:03:25;;;;;;;9.23;4.25;;;;;;;17.43;61.61;102087.44;5026999;28;124096;-63
2021/10/27 03:05:52;;;;;;;9.98;4.13;;;;;;;17.44;61.52;102083.81;5027648;28;124139;-62
2021/10/27 03:08:20;;;;;;;11.73;4.07;;;;;;;17.44;61.53;102090.06;5022211;28;108900;-62
2021/10/27 03:10:47;;;;;;;8.30;3.95;;;;;;;17.45;61.63;102090.91;5028942;28;108980;-63
2021/10/27 03:13:14;;;;;;;7.07;3.90;;;;;;;17.45;61.31;102093.59;5031177;28;124309;-61
2021/10/27 03:15:41;;;;;;;9.95;4.18;;;;;;;17.45;61.51;102090.91;5024819;28;122762;-61
2021/10/27 03:18:09;;;;;;;9.50;3.78;;;;;;;17.43;61.63;102088.31;5031865;28;108544;-62
2021/10/27 03:20:37;;;;;;;7.88;3.92;;;;;;;17.44;61.46;102089.16;5026828;28;107891;-62
2021/10/27 03:23:04;;;;;;;7.60;3.67;;;;;;;17.43;61.52;102087.44;5031694;28;124298;-61
2021/10/27 03:25:31;;;;;;;10.02;4.30;;;;;;;17.43;61.44;102090.13;5021291;28;123964;-61
2021/10/27 03:27:59;;;;;;;9.57;3.80;;;;;;;17.41;61.49;102098.25;5022367;28;110239;-62
2021/10/27 03:30:26;;;;;;;9.43;3.63;;;;;;;17.42;61.43;102107.13;5029368;28;110096;-61
2021/10/27 03:32:54;;;;;;;7.70;4.38;;;;;;;17.40;61.44;102104.53;5033446;28;124143;-62
2021/10/27 03:35:21;;;;;;;8.43;3.83;;;;;;;17.40;61.67;102106.34;5030038;28;124640;-62
2021/10/27 03:37:49;;;;;;;9.60;4.43;;;;;;;17.40;61.45;102103.69;5030928;27;109549;-61
2021/10/27 03:40:16;;;;;;;9.55;4.22;;;;;;;17.39;61.52;102107.31;5046162;27;108083;-62
2021/10/27 03:42:44;;;;;;;7.55;4.22;;;;;;;17.39;61.38;102101.97;5051920;27;124914;-62
2021/10/27 03:45:11;;;;;;;8.50;4.10;;;;;;;17.39;61.35;102096.59;5050306;27;125416;-62
2021/10/27 03:47:39;;;;;;;8.95;4.30;;;;;;;17.39;61.46;102096.59;5051667;27;109486;-63
2021/10/27 03:50:10;;;;;;;9.90;4.43;;;;;;;17.40;61.36;102098.31;5050680;27;108886;-63
2021/10/27 03:52:37;;;;;;;8.10;4.28;;;;;;;17.40;61.47;102092.97;5050775;27;125408;-63
2021/10/27 03:55:05;;;;;;;11.52;4.30;;;;;;;17.38;61.50;102100.22;5051466;27;123780;-63
2021/10/27 03:57:32;;;;;;;9.68;4.13;;;;;;;17.37;61.31;102098.50;5047841;27;110760;-63
2021/10/27 03:59:59;;;;;;;10.75;4.60;;;;;;;17.37;61.26;102109.22;5048032;27;108276;-63
2021/10/27 04:02:27;;;;;;;7.10;4.00;;;;;;;17.35;61.48;102105.72;5049349;27;124184;-63
2021/10/27 04:04:55;;;;;;;11.80;4.38;;;;;;;17.34;61.34;102106.69;5048468;27;123221;-64
2021/10/27 04:07:23;;;;;;;8.30;4.18;;;;;;;17.32;61.53;102112.97;5050440;27;109794;-63
2021/10/27 04:09:50;;;;;;;10.52;4.38;;;;;;;17.31;61.60;102105.91;5051795;27;109620;-63
2021/10/27 04:12:17;;;;;;;8.35;3.95;;;;;;;17.31;61.49;102105.91;5047340;27;124751;-63
2021/10/27 04:14:44;;;;;;;8.43;3.80;;;;;;;17.30;61.53;102104.16;5051132;27;123896;-63
2021/10/27 04:17:11;;;;;;;9.32;4.25;;;;;;;17.31;61.35;102095.19;5046645;27;111003;-63
2021/10/27 04:19:38;;;;;;;8.82;4.00;;;;;;;17.30;61.53;102098.81;5046957;27;110156;-63
2021/10/27 04:22:05;;;;;;;12.27;4.05;;;;;;;17.31;61.28;102100.56;5049556;27;124147;-63
2021/10/27 04:24:32;;;;;;;9.40;4.32;;;;;;;17.31;61.30;102100.56;5047241;27;124062;-63
2021/10/27 04:27:00;;;;;;;7.90;3.80;;;;;;;17.31;61.47;102100.56;5053588;27;109478;-63
2021/10/27 04:29:27;;;;;;;8.70;4.30;;;;;;;17.30;61.34;102104.16;5049180;27;108732;-63
2021/10/27 04:31:54;;;;;;;8.30;4.03;;;;;;;17.29;61.23;102102.44;5046199;27;124363;-63
2021/10/27 04:34:22;;;;;;;7.78;4.20;;;;;;;17.26;61.27;102097.25;5044014;27;124533;-63
2021/10/27 04:36:50;;;;;;;10.95;4.30;;;;;;;17.25;61.25;102106.25;5045502;27;108264;-63
2021/10/27 04:39:17;;;;;;;7.82;4.03;;;;;;;17.23;61.12;102110.78;5053883;27;108137;-63
2021/10/27 04:41:44;;;;;;;8.80;4.30;;;;;;;17.22;61.01;102111.75;5049013;27;124334;-63
2021/10/27 04:44:11;;;;;;;7.32;4.00;;;;;;;17.19;61.03;102113.72;5050794;27;125516;-63
2021/10/27 04:46:38;;;;;;;6.93;3.90;;;;;;;17.16;61.08;102109.41;5051867;27;109102;-63
2021/10/27 04:49:05;;;;;;;11.90;4.28;;;;;;;17.12;60.97;102115.84;5051231;27;108797;-63
2021/10/27 04:51:32;;;;;;;10.88;4.20;;;;;;;17.10;61.00;102112.38;5048532;27;124720;-63
2021/10/27 04:53:59;;;;;;;8.90;4.00;;;;;;;17.04;61.02;102118.91;5049991;27;124023;-63
2021/10/27 04:56:29;;;;;;;8.57;4.30;;;;;;;17.03;61.11;102116.34;5048576;27;109292;-63
2021/10/27 04:58:56;;;;;;;8.98;4.00;;;;;;;16.99;61.21;102115.63;5049428;27;108681;-63
2021/10/27 05:01:23;;;;;;;9.85;3.97;;;;;;;16.96;61.21;102125.63;5051933;27;124058;-63
2021/10/27 05:03:51;;;;;;;9.77;4.55;;;;;;;16.91;61.28;102118.72;5048703;27;123814;-63
2021/10/27 05:06:19;;;;;;;6.70;3.72;;;;;;;16.88;61.18;102116.19;5049972;27;109306;-63
2021/10/27 05:08:47;;;;;;;9.88;4.25;;;;;;;16.85;61.12;102124.34;5056769;27;109678;-63
2021/10/27 05:11:14;;;;;;;8.57;4.15;;;;;;;16.81;61.09;102128.09;5048404;27;124120;-63
2021/10/27 05:13:44;;;;;;;9.80;4.40;;;;;;;16.78;61.31;102117.53;5049323;27;123948;-61
2021/10/27 05:16:11;;;;;;;10.00;4.43;;;;;;;16.74;61.16;102118.66;5052867;27;109380;-61
2021/10/27 05:18:38;;;;;;;7.78;4.05;;;;;;;16.71;61.51;102117.00;5047693;27;109396;-61
2021/10/27 05:21:06;;;;;;;9.50;4.07;;;;;;;16.68;61.27;102121.66;5052533;27;124381;-61
2021/10/27 05:23:35;;;;;;;10.93;4.63;;;;;;;16.66;61.45;102116.38;5050599;27;122637;-61
2021/10/27 05:26:03;;;;;;;8.48;4.10;;;;;;;16.65;61.34;102128.03;5048136;27;108138;-62
2021/10/27 05:28:30;;;;;;;10.77;4.13;;;;;;;16.63;61.38;102129.03;5045233;27;108906;-63
2021/10/27 05:30:58;;;;;;;9.30;4.22;;;;;;;16.60;61.51;102134.53;5045720;27;123947;-63
2021/10/27 05:33:25;;;;;;;8.00;4.28;;;;;;;16.58;61.31;102131.09;5045276;27;123872;-63
2021/10/27 05:35:52;;;;;;;14.02;4.55;;;;;;;16.54;61.41;102133.91;5050127;27;109838;-63
2021/10/27 05:38:19;;;;;;;9.30;4.05;;;;;;;16.52;61.45;102126.91;5051300;27;109482;-63
2021/10/27 05:40:47;;;;;;;8.13;4.60;;;;;;;16.48;61.51;102126.19;5055837;27;124120;-63
2021/10/27 05:43:15;;;;;;;6.53;4.28;;;;;;;16.48;61.70;102130.66;5047253;27;124682;-63
2021/10/27 05:45:42;;;;;;;8.57;4.30;;;;;;;16.46;61.59;102133.44;5042245;27;109516;-63
2021/10/27 05:48:12;;;;;;;9.35;4.50;;;;;;;16.45;61.60;102137.03;5045425;27;108782;-63
2021/10/27 05:50:45;;;;;;;8.65;4.15;;;;;;;16.45;61.52;102137.03;5041044;27;124648;-63
2021/10/27 05:55:58;;;;;;;;;;;;;;;16.35;61.39;102130.41;5041615;27;110261;-63
2021/10/27 05:58:25;;;;;;;7.85;4.07;;;;;;;16.32;61.28;102135.91;5051233;27;108715;-63
2021/10/27 06:00:53;;;;;;;9.13;4.82;;;;;;;16.28;61.46;102128.97;5052552;27;124715;-63
2021/10/27 06:03:21;;;;;;;9.55;4.72;;;;;;;16.24;61.46;102132.75;5056706;27;124210;-63
2021/10/27 06:05:48;;;;;;;11.88;4.20;;;;;;;16.21;61.31;102132.88;5053893;27;109324;-62
2021/10/27 06:08:16;;;;;;;9.75;4.38;;;;;;;16.17;61.39;102131.28;5037279;27;109371;-62
2021/10/27 06:10:43;;;;;;;7.88;4.53;;;;;;;16.12;61.42;102132.38;5051278;27;124191;-62
2021/10/27 06:13:14;;;;;;;10.43;4.50;;;;;;;16.08;61.42;102129.91;5048282;27;123817;-62
2021/10/27 06:15:41;;;;;;;8.80;4.63;;;;;;;16.05;61.50;102138.97;5040165;27;109097;-62
2021/10/27 06:18:09;;;;;;;10.70;4.40;;;;;;;16.03;61.50;102139.94;5054785;27;109094;-62
2021/10/27 06:20:36;;;;;;;11.55;4.75;;;;;;;15.97;61.54;102141.09;5034239;27;122562;-62
2021/10/27 06:23:03;;;;;;;8.85;5.05;;;;;;;15.94;61.74;102141.28;5045356;27;124584;-62
2021/10/27 06:25:31;;;;;;;7.68;4.45;;;;;;;15.90;61.74;102142.34;5054979;27;108459;-62
2021/10/27 06:28:04;;;;;;;6.88;4.38;;;;;;;15.88;61.74;102141.53;5054630;27;108978;-62
2021/10/27 06:35:46;;;;;;;13.70;4.63;;;;;;;15.82;61.83;102155.19;5039546;27;109201;-62
2021/10/27 06:46:57;;;;;;;8.75;4.57;;;;;;;15.75;61.92;102163.47;5041071;27;109588;-62
2021/10/27 06:49:24;;;;;;;9.68;4.75;;;;;;;15.75;62.05;102168.81;5053257;27;109609;-62
2021/10/27 06:51:52;;;;;;;8.40;4.40;;;;;;;15.76;62.18;102165.22;5050016;27;123795;-62
2021/10/27 06:54:19;;;;;;;11.52;4.60;;;;;;;15.77;62.17;102169.63;5053362;27;124627;-62
2021/10/27 06:56:46;;;;;;;9.80;4.63;;;;;;;15.77;62.02;102174.09;5049683;27;109276;-62
2021/10/27 06:59:30;;;;;;;11.20;4.85;;;;;;;15.77;62.17;102172.28;5054533;27;109108;-63
2021/10/27 07:04:47;;;;;;;9.80;4.53;;;;;;;15.78;62.37;102173.16;5051339;27;124383;-63
2021/10/27 07:15:37;;;;;;;;;;;;;;;15.74;62.20;102185.78;5053600;27;123817;-61
2021/10/27 07:18:06;;;;;;;9.25;4.70;;;;;;;15.76;62.11;102186.59;5054381;27;109152;-62
2021/10/27 07:20:33;;;;;;;10.70;4.53;;;;;;;15.77;62.30;102188.31;5039951;27;108942;-62
2021/10/27 07:23:00;;;;;;;9.60;4.40;;;;;;;15.80;62.42;102191.78;5044160;27;123593;-60
2021/10/27 07:25:36;;;;;;;11.13;4.38;;;;;;;15.81;62.52;102189.06;5040277;27;124696;-61
2021/10/27 07:28:04;;;;;;;8.57;4.65;;;;;;;15.84;62.46;102196.03;5052914;27;109374;-60
2021/10/27 07:30:32;;;;;;;10.10;4.30;;;;;;;15.85;62.45;102190.63;5055780;27;108802;-60
2021/10/27 07:32:59;;;;;;;9.50;4.65;;;;;;;15.88;62.68;102189.63;5055942;27;124144;-60
2021/10/27 07:35:38;;;;;;;8.07;4.50;;;;;;;15.91;62.65;102185.00;5053196;27;124121;-61
2021/10/27 07:40:54;;;;;;;8.85;4.60;;;;;;;16.01;62.80;102201.50;5052914;27;110205;-62
2021/10/27 07:43:28;;;;;;;9.98;4.45;;;;;;;16.05;62.71;102200.44;5053187;27;124199;-62
2021/10/27 07:45:55;;;;;;;13.70;4.80;;;;;;;16.10;62.74;102206.41;5053847;27;123729;-62
2021/10/27 07:48:23;;;;;;;13.38;4.93;;;;;;;16.14;62.75;102202.66;5044328;27;108463;-62
2021/10/27 07:50:50;;;;;;;9.23;4.97;;;;;;;16.20;62.86;102205.97;5049917;27;108962;-62
2021/10/27 07:53:22;;;;;;;9.55;5.50;;;;;;;16.26;62.82;102211.06;5043293;27;124749;-62
2021/10/27 07:55:51;;;;;;;10.10;4.78;;;;;;;16.31;62.88;102219.69;5049743;27;123743;-62
2021/10/27 07:58:19;;;;;;;8.65;4.88;;;;;;;16.36;62.75;102217.69;5054055;27;109385;-62
2021/10/27 08:00:48;;;;;;;9.95;4.72;;;;;;;16.43;62.86;102224.47;5051517;27;109017;-62
2021/10/27 08:03:16;;;;;;;9.88;4.70;;;;;;;16.50;62.70;102231.28;5033852;27;124426;-62
2021/10/27 08:05:43;;;;;;;8.18;5.05;;;;;;;16.55;62.70;102221.19;5043875;27;123902;-62
2021/10/27 08:08:13;;;;;;;9.10;4.80;;;;;;;16.61;62.75;102221.84;5041807;27;109294;-62
2021/10/27 08:10:42;;;;;;;10.95;4.95;;;;;;;16.67;62.77;102232.25;5054456;27;109249;-62
2021/10/27 08:13:10;;;;;;;7.85;4.57;;;;;;;16.72;62.82;102232.91;5034104;27;123991;-62
2021/10/27 08:15:41;;;;;;;11.13;5.05;;;;;;;16.78;62.76;102224.56;5039056;27;124333;-62
2021/10/27 08:18:14;;;;;;;10.98;4.82;;;;;;;16.84;62.68;102228.78;5054623;27;109231;-62
2021/10/27 08:20:42;;;;;;;12.52;4.80;;;;;;;16.89;62.27;102232.97;5053061;27;108930;-62
2021/10/27 08:23:14;;;;;;;9.85;5.00;;;;;;;16.95;62.44;102236.28;5041565;27;124555;-62
2021/10/27 08:25:48;;;;;;;10.25;4.53;;;;;;;16.99;62.45;102232.50;5039426;27;123955;-62
2021/10/27 08:28:20;;;;;;;11.25;5.03;;;;;;;17.06;62.38;102233.94;5052864;27;110719;-63
2021/10/27 08:33:20;;;;;;;9.75;5.03;;;;;;;17.13;62.15;102230.03;5052472;27;124171;-62
2021/10/27 08:35:50;;;;;;;11.70;4.80;;;;;;;17.15;62.02;102217.41;5055473;27;123845;-62
2021/10/27 08:38:21;;;;;;;9.15;4.25;;;;;;;17.19;62.26;102219.00;5056527;27;108948;-61
2021/10/27 08:41:19;;;;;;;9.75;5.00;;;;;;;17.26;62.14;102223.09;5043162;27;109373;-62
2021/10/27 08:43:47;;;;;;;8.52;5.00;;;;;;;17.34;62.12;102227.19;5047123;27;123898;-62
2021/10/27 08:46:16;;;;;;;8.40;5.20;;;;;;;17.41;62.13;102223.28;5052856;27;124178;-62
2021/10/27 08:48:49;;;;;;;8.23;4.78;;;;;;;17.47;62.03;102229.16;5053904;27;109310;-62
2021/10/27 08:51:17;;;;;;;8.55;4.72;;;;;;;17.53;61.89;102227.97;5053190;27;109405;-63
2021/10/27 08:53:47;;;;;;;9.88;4.82;;;;;;;17.58;61.80;102231.28;5055744;27;97691;-62
2021/10/27 08:56:14;;;;;;;9.32;4.93;;;;;;;17.61;61.65;102236.50;5054421;27;124551;-62
2021/10/27 08:58:44;;;;;;;10.80;5.28;;;;;;;17.67;61.74;102241.53;5055631;27;109045;-60
2021/10/27 09:42:30;;;;;;;9.20;5.68;;;;;;;18.68;60.41;102240.50;5029547;27;123316;-77
2021/10/27 10:05:19;;;;;;;10.00;5.40;;;;;;;19.22;59.35;102234.72;5019535;28;122963;-78
2021/10/27 10:07:48;;;;;;;7.25;5.63;;;;;;;19.28;59.29;102235.31;5002940;28;108592;-78
2021/10/27 10:10:15;;;;;;;8.77;5.68;;;;;;;19.31;59.06;102233.31;5038819;28;109156;-79
2021/10/27 10:12:44;;;;;;;8.32;5.25;;;;;;;19.36;58.94;102241.09;5035948;28;123588;-76
2021/10/27 10:15:12;;;;;;;9.43;5.88;;;;;;;19.40;58.88;102231.88;5000718;28;123600;-79
2021/10/27 10:17:41;;;;;;;12.95;5.72;;;;;;;19.45;58.73;102240.53;5022658;28;110105;-77
2021/10/27 10:20:14;;;;;;;9.68;5.97;;;;;;;19.49;58.48;102236.69;5017972;28;110227;-78
2021/10/27 10:23:24;;;;;;;11.52;5.90;;;;;;;19.53;58.55;102230.16;5018247;28;124111;-76
2021/10/27 10:25:57;;;;;;;10.60;6.22;;;;;;;19.58;58.35;102241.50;5023957;28;123041;-77
2021/10/27 10:28:27;;;;;;;8.68;5.95;;;;;;;19.61;58.52;102235.09;5035267;28;108994;-79
2021/10/27 10:31:01;;;;;;;6.68;5.07;;;;;;;19.65;58.14;102231.28;5018380;28;109398;-79
2021/10/27 10:33:49;;;;;;;8.30;5.43;;;;;;;19.71;58.33;102221.97;5017121;28;123039;-76
2021/10/27 10:36:19;;;;;;;12.85;5.93;;;;;;;19.77;58.16;102218.91;5014413;28;124144;-77
2021/10/27 10:45:22;;;;;;;10.27;4.75;;;;;;;19.98;57.66;102222.94;4960474;28;123393;-78
2021/10/27 11:01:38;;;;;;;6.65;3.80;;;;;;;20.40;57.30;102234.63;5034292;28;109309;-77
2021/10/27 11:24:44;;;;;;;5.63;2.85;;;;;;;20.67;55.80;102220.38;5032717;28;108941;-77
2021/10/27 11:40:39;;;;;;;9.00;2.83;;;;;;;20.76;55.41;102208.13;5015113;28;122539;-78
2021/10/27 11:48:52;;;;;;;6.15;2.67;;;;;;;20.84;55.21;102199.56;5030033;28;108784;-78
2021/10/27 11:51:14;;;;;;;5.57;2.80;;;;;;;20.89;55.13;102197.38;5015740;28;122875;-77
2021/10/27 11:53:45;;;;;;;5.95;2.80;;;;;;;20.88;54.72;102201.06;5035640;28;123637;-78
2021/10/27 11:56:21;;;;;;;5.68;2.90;;;;;;;20.84;54.74;102205.78;5015845;28;109052;-78
2021/10/27 11:58:52;;;;;;;6.97;3.00;;;;;;;20.82;54.53;102206.88;5013436;28;108067;-77
2021/10/27 12:01:26;;;;;;;5.72;2.70;;;;;;;20.80;54.81;102198.88;5010770;28;123774;-78
2021/10/27 12:03:57;;;;;;;5.87;2.90;;;;;;;20.83;54.83;102197.81;5032958;28;124608;-78
2021/10/27 12:06:37;;;;;;;5.43;2.65;;;;;;;20.87;54.87;102193.94;5033948;27;110175;-77
2021/10/27 12:19:19;;;;;;;3.70;2.08;;;;;;;20.98;54.49;102186.00;5024204;28;108931;-79
2021/10/27 12:21:57;;;;;;;6.22;2.45;;;;;;;20.95;54.29;102180.84;5015834;28;124228;-77
2021/10/27 12:24:27;;;;;;;4.25;2.35;;;;;;;20.93;54.20;102182.78;5032700;28;123812;-78
2021/10/27 12:27:01;;;;;;;7.22;2.47;;;;;;;20.88;54.17;102175.00;4986104;28;108031;-79
2021/10/27 12:29:31;;;;;;;7.22;2.50;;;;;;;20.87;54.01;102172.41;5034019;28;109076;-78
2021/10/27 12:32:10;;;;;;;5.80;2.80;;;;;;;20.85;54.18;102179.72;5032607;28;123908;-77
2021/10/27 12:34:52;;;;;;;6.35;2.80;;;;;;;20.84;54.14;102172.63;4998040;28;122764;-78
2021/10/27 12:37:38;;;;;;;6.75;3.00;;;;;;;20.83;54.30;102170.88;5030613;28;109324;-77
2021/10/27 12:40:13;;;;;;;5.18;2.50;;;;;;;20.84;54.20;102161.84;5032184;28;107570;-78
2021/10/27 12:42:41;;;;;;;5.82;2.85;;;;;;;20.85;54.19;102155.47;5028536;28;124120;-78
2021/10/27 12:45:08;;;;;;;4.40;2.75;;;;;;;20.86;54.23;102149.13;5032674;28;123636;-78
2021/10/27 12:47:39;;;;;;;7.88;2.67;;;;;;;20.87;53.98;102151.75;5034248;28;108725;-80
2021/10/27 12:50:14;;;;;;;8.13;3.00;;;;;;;20.85;53.98;102147.41;5032830;28;107393;-80
2021/10/27 12:52:52;;;;;;;6.53;3.22;;;;;;;20.86;54.24;102149.13;5011264;28;123315;-78
2021/10/27 12:55:26;;;;;;;4.45;3.03;;;;;;;20.88;54.37;102141.81;5024305;28;124258;-77
2021/10/27 12:57:54;;;;;;;5.20;2.50;;;;;;;20.92;54.06;102143.31;5028467;28;110130;-78
2021/10/27 13:03:45;;;;;;;6.95;2.75;;;;;;;20.87;53.86;102132.00;5024098;28;123625;-78
2021/10/27 13:22:49;;;;;;;5.45;2.30;;;;;;;20.77;53.69;102126.38;5037288;28;109157;-77
2021/10/27 13:33:48;;;;;;;6.50;2.10;;;;;;;20.71;53.22;102119.59;5047209;28;108876;-77
2021/10/27 13:36:16;;;;;;;4.00;2.15;;;;;;;20.71;53.47;102113.34;5022312;28;123943;-76
2021/10/27 13:38:45;;;;;;;5.35;2.00;;;;;;;20.72;52.99;102115.94;5041402;28;123627;-76
2021/10/27 13:41:12;;;;;;;3.63;2.13;;;;;;;20.72;53.06;102115.94;5047895;28;108675;-76
2021/10/27 13:43:51;;;;;;;6.25;1.90;;;;;;;20.72;52.97;102121.31;5053007;28;109066;-77
2021/10/27 14:08:17;;;;;;;6.30;2.20;;;;;;;20.84;52.62;102108.00;5042041;28;123134;-77
2021/10/27 14:10:59;;;;;;;7.43;1.80;;;;;;;20.80;52.78;102102.81;5041784;28;123274;-78
2021/10/27 14:13:43;;;;;;;3.00;1.75;;;;;;;20.80;52.82;102102.81;5029729;28;108122;-77
2021/10/27 15:19:41;;;;;;;3.65;1.80;;;;;;;20.29;52.41;102046.13;5029019;28;109102;-75
2021/10/27 15:22:22;;;;;;;4.60;1.92;;;;;;;20.26;52.60;102046.31;5013206;28;108457;-76
2021/10/27 15:44:07;;;;;;;5.35;1.60;;;;;;;19.83;52.68;102057.22;5034739;28;109434;-78
2021/10/27 15:52:10;;;;;;;3.38;1.73;;;;;;;19.63;52.89;102053.97;5035834;28;109752;-76
2021/10/27 15:54:37;;;;;;;4.10;1.95;;;;;;;19.59;53.00;102055.13;5034952;28;108738;-76
2021/10/27 15:57:05;;;;;;;4.03;1.77;;;;;;;19.55;53.11;102061.66;5035319;28;123393;-78
2021/10/27 15:59:32;;;;;;;3.45;1.80;;;;;;;19.50;52.90;102055.72;5013653;28;123068;-77
2021/10/27 16:01:59;;;;;;;3.72;2.00;;;;;;;19.47;53.25;102050.53;5015942;28;107812;-78
2021/10/27 16:04:26;;;;;;;3.17;1.90;;;;;;;19.43;53.26;102059.75;5032949;28;109370;-78
2021/10/27 16:06:55;;;;;;;4.15;1.83;;;;;;;19.40;53.16;102054.53;5023412;28;123239;-79
2021/10/27 16:09:26;;;;;;;4.68;1.95;;;;;;;19.37;53.13;102054.75;5009565;28;122680;-76
2021/10/27 16:11:57;;;;;;;4.68;2.17;;;;;;;19.32;53.02;102051.50;5030392;28;109359;-78
2021/10/27 16:14:27;;;;;;;8.13;2.22;;;;;;;19.29;53.26;102057.94;5032329;28;109197;-77
2021/10/27 16:16:55;;;;;;;4.57;2.13;;;;;;;19.22;53.20;102057.44;5031281;28;123733;-78
2021/10/27 16:19:26;;;;;;;4.50;2.03;;;;;;;19.16;53.33;102057.81;4995976;28;121744;-77
2021/10/27 16:22:09;;;;;;;4.28;2.20;;;;;;;19.09;53.47;102061.84;5013781;28;109278;-77
2021/10/27 16:24:38;;;;;;;4.10;2.17;;;;;;;19.03;53.48;102062.22;5015597;28;109155;-78
2021/10/27 16:27:07;;;;;;;4.20;2.20;;;;;;;18.97;53.72;102062.63;4997521;28;123072;-77